Latest Weather Observations for Coolangatta

IDQ60901

Issued at 2:05 pm EST Tuesday 2 September 2014 (issued every 10 minutes, with the page automatically refreshed every 10 minutes)

About weather observations | Map of Brisbane area stations | Latest observations for Brisbane area | Other Formats
Station Details ID: 040717 Name: COOLANGATTA Lat: -28.17 Lon: 153.51 Height: 4.0 m
Data from the previous 72 hours. | See also: Recent months at Coolangatta
Date/Time
EST
Tmp

°C
App
Tmp
°C
Dew
Point
°C
Rel
Hum
%
Delta-T

°C
Wind Press
QNH
hPa
Press
MSL
hPa
Rain
since
9 am
mm
Dir
 
Spd
km/h
Gust
km/h
Spd
kts
Gust
kts
02/02:00pm 22.9 17.9 13.4 55 5.5 N 32 43 17 23 1007.0 1007.0 0.0
02/01:30pm 24.1 19.4 12.1 47 6.8 N 28 35 15 19 1007.4 1007.4 0.0
02/01:00pm 22.7 17.7 13.5 56 5.3 N 32 43 17 23 1008.0 1008.0 0.0
02/12:30pm 22.5 16.8 11.9 51 6.0 N 33 39 18 21 1008.7 1008.7 0.0
02/12:00pm 21.9 16.8 11.9 53 5.6 N 30 39 16 21 1009.5 1009.5 0.0
02/11:30am 21.8 16.8 10.9 50 6.0 N 28 35 15 19 1010.3 1010.3 0.0
02/11:00am 20.9 15.2 11.0 53 5.4 N 32 39 17 21 1011.1 1011.1 0.0
02/10:30am 19.8 15.6 11.0 57 4.8 NNW 24 33 13 18 1011.9 1011.9 0.0
02/10:00am 19.0 14.8 11.1 60 4.3 NNW 24 35 13 19 1012.4 1012.4 0.0
02/09:30am 18.5 13.8 9.3 55 4.8 NNW 24 35 13 19 1012.8 1012.8 0.0
02/09:00am 18.2 13.3 10.1 59 4.3 NNW 26 35 14 19 1012.8 1012.8 0.0
02/08:30am 17.8 13.9 10.7 63 3.8 NNW 22 28 12 15 1013.1 1013.1 0.0
02/08:00am 17.1 13.6 10.9 67 3.3 NNW 20 26 11 14 1013.5 1013.5 0.0
02/07:30am 16.5 13.3 11.2 71 2.9 NNW 19 24 10 13 1013.8 1013.8 0.0
02/07:00am 15.8 14.8 12.2 79 2.0 NNW 9 15 5 8 1014.0 1014.0 0.0
02/06:30am 15.4 15.0 13.1 86 1.3 SSE 7 9 4 5 1013.9 1013.9 0.0
02/06:00am 14.8 14.5 12.7 87 1.2 NNW 6 9 3 5 1013.8 1013.8 0.0
02/05:30am 14.7 13.8 12.6 87 1.1 NW 9 11 5 6 1013.7 1013.7 0.0
02/05:00am 15.2 14.2 12.3 83 1.6 NNW 9 13 5 7 1013.8 1013.8 0.0
02/04:30am 15.7 14.4 12.5 81 1.8 NW 11 13 6 7 1013.8 1013.8 0.0
02/04:00am 17.0 14.3 12.9 77 2.3 NNW 19 24 10 13 1013.7 1013.7 0.0
02/03:30am 16.8 14.4 12.7 77 2.3 NNW 17 24 9 13 1013.6 1013.6 0.0
02/03:00am 16.4 15.0 13.3 82 1.7 NNW 13 15 7 8 1013.9 1013.9 0.0
02/02:30am 16.5 15.2 13.8 84 1.5 NNW 13 17 7 9 1014.3 1014.3 0.0
02/02:00am 16.6 15.4 14.1 85 1.4 NNW 13 19 7 10 1014.3 1014.3 0.0
02/01:30am 16.6 15.8 15.0 90 0.9 NNW 13 15 7 8 1014.9 1014.9 0.0
02/01:00am 15.6 15.7 14.5 93 0.6 N 7 11 4 6 1015.2 1015.2 0.0
02/12:30am 15.3 14.9 14.2 93 0.6 NW 9 11 5 6 1015.7 1015.7 0.0
02/12:00am 14.3 13.3 13.3 94 0.6 WNW 11 13 6 7 1015.8 1015.8 0.0
 
Date/Time
EST
Tmp

°C
App
Tmp
°C
Dew
Point
°C
Rel
Hum
%
Delta-T

°C
Wind Press
QNH
hPa
Press
MSL
hPa
Rain
since
9 am
mm
Dir
 
Spd
km/h
Gust
km/h
Spd
kts
Gust
kts
01/11:30pm 14.1 13.4 13.1 94 0.6 W 9 11 5 6 1015.8 1015.8 0.0
01/11:00pm 14.6 14.5 13.3 92 0.7 WSW 6 7 3 4 1016.1 1016.1 0.0
01/10:30pm 15.2 15.3 13.9 92 0.7 WSW 6 7 3 4 1016.2 1016.2 0.0
01/10:00pm 15.4 15.4 14.1 92 0.7 WSW 7 7 4 4 1016.2 1016.2 0.0
01/09:30pm 15.6 15.5 13.8 89 1.0 W 7 9 4 5 1016.5 1016.5 0.0
01/09:00pm 16.6 16.4 13.7 83 1.6 W 7 9 4 5 1016.7 1016.7 0.0
01/08:30pm 18.2 18.2 14.3 78 2.2 NW 7 11 4 6 1016.6 1016.6 0.0
01/08:00pm 19.2 17.5 14.7 75 2.6 NNW 17 22 9 12 1016.6 1016.6 0.0
01/07:30pm 19.6 18.2 15.5 77 2.4 NNW 17 26 9 14 1016.4 1016.4 0.0
01/07:00pm 19.8 17.5 15.7 77 2.4 N 22 32 12 17 1016.2 1016.2 0.0
01/06:30pm 19.9 17.2 15.7 77 2.5 N 24 33 13 18 1015.7 1015.7 0.0
01/06:00pm 20.0 17.1 15.2 74 2.8 N 24 33 13 18 1015.4 1015.4 0.0
01/05:30pm 20.0 17.1 15.0 73 2.9 N 24 32 13 17 1015.5 1015.5 0.0
01/05:00pm 20.3 17.5 15.3 73 3.0 N 24 32 13 17 1015.4 1015.4 0.0
01/04:30pm 21.0 17.9 14.6 67 3.7 N 24 32 13 17 1015.1 1015.1 0.0
01/04:00pm 21.6 18.8 15.4 68 3.7 N 24 33 13 18 1014.6 1014.6 0.0
01/03:30pm 21.7 17.9 14.8 65 4.1 N 28 33 15 18 1014.7 1014.7 0.0
01/03:00pm 22.2 19.3 15.1 64 4.2 N 24 32 13 17 1015.0 1015.0 0.0
01/02:30pm 22.2 18.6 15.3 65 4.1 NNE 28 33 15 18 1015.2 1015.2 0.0
01/02:00pm 22.1 18.7 15.7 67 3.8 NNE 28 33 15 18 1015.4 1015.4 0.0
01/01:30pm 22.3 19.2 15.6 66 4.0 N 26 32 14 17 1016.0 1016.0 0.0
01/01:00pm 21.9 18.8 15.7 68 3.7 NNE 26 32 14 17 1016.1 1016.1 0.0
01/12:30pm 22.8 19.9 16.1 66 4.1 NNE 26 33 14 18 1016.5 1016.5 0.0
01/12:00pm 22.1 18.9 15.2 65 4.1 NNE 26 30 14 16 1017.3 1017.3 0.0
01/11:30am 22.4 20.1 15.7 66 4.0 NNE 22 28 12 15 1017.8 1017.8 0.0
01/11:00am 21.8 19.5 14.7 64 4.2 NNE 20 24 11 13 1018.6 1018.6 0.0
01/10:30am 21.0 18.2 14.2 65 4.0 N 22 26 12 14 1018.9 1018.9 0.0
01/10:00am 20.7 18.4 14.1 66 3.8 NNE 19 22 10 12 1019.2 1019.2 0.0
01/09:30am 20.1 17.7 12.6 62 4.2 N 17 20 9 11 1019.4 1019.4 0.0
01/09:00am 20.0 19.0 13.5 66 3.7 N 11 15 6 8 1019.7 1019.7 0.0
01/08:30am 19.7 19.8 14.5 72 3.0 N 7 9 4 5 1019.7 1019.7 0.0
01/08:00am 18.3 18.7 13.6 74 2.7 NE 4 7 2 4 1019.5 1019.5 0.0
01/07:30am 16.2 17.2 13.3 83 1.6 CALM 0 2 0 1 1019.4 1019.4 0.0
01/07:00am 14.6 15.7 13.5 93 0.6 CALM 0 0 0 0 1019.1 1019.1 0.0
01/06:30am 13.6 13.7 12.7 94 0.5 SW 4 7 2 4 1018.9 1018.9 0.0
01/06:00am 13.4 12.8 12.3 93 0.6 WSW 7 9 4 5 1018.7 1018.7 0.0
01/05:30am 14.0 13.8 12.9 93 0.6 SSW 6 7 3 4 1018.3 1018.3 0.0
01/05:00am 14.4 15.4 13.3 93 0.6 CALM 0 0 0 0 1018.2 1018.2 0.0
01/04:30am 14.4 14.3 13.3 93 0.6 SW 6 6 3 3 1018.2 1018.2 0.0
01/04:00am 14.5 13.6 13.7 95 0.4 WSW 11 11 6 6 1018.3 1018.3 0.0
01/03:30am 14.2 13.5 13.2 94 0.6 WSW 9 11 5 6 1018.1 1018.1 0.0
01/03:00am 14.3 13.7 13.5 95 0.4 SW 9 11 5 6 1018.2 1018.2 0.0
01/02:30am 13.4 12.8 12.3 93 0.6 WSW 7 9 4 5 1018.2 1018.2 0.0
01/02:00am 13.9 13.7 13.0 94 0.5 SW 6 7 3 4 1018.3 1018.3 0.0
01/01:30am 13.9 14.8 12.8 93 0.6 CALM 0 0 0 0 1018.4 1018.4 0.0
01/01:00am 14.1 13.7 13.1 94 0.5 SW 7 9 4 5 1018.6 1018.6 0.0
01/12:30am 14.1 13.7 13.1 94 0.6 WSW 7 11 4 6 1018.7 1018.7 0.0
01/12:00am 13.6 13.3 12.7 94 0.5 SW 6 7 3 4 1018.8 1018.8 0.0
 
Date/Time
EST
Tmp

°C
App
Tmp
°C
Dew
Point
°C
Rel
Hum
%
Delta-T

°C
Wind Press
QNH
hPa
Press
MSL
hPa
Rain
since
9 am
mm
Dir
 
Spd
km/h
Gust
km/h
Spd
kts
Gust
kts
31/11:30pm 13.7 13.4 12.6 93 0.6 SW 6 7 3 4 1019.0 1019.0 0.0
31/11:00pm 13.9 13.1 13.0 94 0.5 SW 9 9 5 5 1019.0 1019.0 0.0
31/10:30pm 14.3 13.2 13.2 93 0.6 WSW 11 13 6 7 1019.0 1019.0 0.0
31/10:00pm 14.4 13.6 13.0 91 0.8 SW 9 11 5 6 1018.8 1018.8 0.0
31/09:30pm 14.7 14.0 13.2 91 0.8 SW 9 9 5 5 1018.9 1018.9 0.0
31/09:00pm 15.1 14.5 13.5 90 0.9 WSW 9 11 5 6 1018.8 1018.8 0.0
31/08:30pm 15.8 15.6 13.6 87 1.2 SW 7 9 4 5 1018.9 1018.9 0.0
31/08:00pm 16.4 15.3 14.2 87 1.2 SW 13 15 7 8 1018.7 1018.7 0.0
31/07:30pm 15.4 14.7 13.2 87 1.2 WSW 9 11 5 6 1018.6 1018.6 0.0
31/07:00pm 16.2 16.0 13.5 84 1.5 S 7 9 4 5 1018.3 1018.3 0.0
31/06:30pm 16.5 15.7 13.0 80 1.9 SSW 9 11 5 6 1017.9 1017.9 0.0
31/06:00pm 17.4 16.7 13.3 77 2.3 SSE 9 15 5 8 1017.6 1017.6 0.0
31/05:30pm 18.3 16.5 13.4 73 2.8 SSE 15 22 8 12 1017.2 1017.2 0.0
31/05:00pm 19.2 16.0 13.2 68 3.4 SE 22 30 12 16 1017.0 1017.0 0.0
31/04:30pm 19.8 17.0 13.3 66 3.7 SSE 20 32 11 17 1016.6 1016.6 0.0
31/04:00pm 20.6 17.1 13.3 63 4.2 SE 24 35 13 19 1016.4 1016.4 0.0
31/03:30pm 21.3 18.0 12.7 58 4.9 SSE 22 32 12 17 1016.3 1016.3 0.0
31/03:00pm 22.0 17.8 13.6 59 4.9 SE 28 35 15 19 1016.1 1016.1 0.0
31/02:30pm 22.2 17.9 13.3 57 5.1 SE 28 35 15 19 1016.0 1016.0 0.0
31/02:00pm 22.4 17.6 12.9 55 5.4 SE 30 39 16 21 1016.0 1016.0 0.0
31/01:30pm 22.7 18.4 13.2 55 5.5 SE 28 35 15 19 1016.1 1016.1 0.0
31/01:00pm 22.6 18.1 12.5 53 5.7 ESE 28 35 15 19 1016.3 1016.3 0.0
31/12:30pm 23.3 19.1 12.3 50 6.3 ESE 26 35 14 19 1016.8 1016.8 0.0
31/12:00pm 23.2 21.6 11.6 48 6.5 SSW 11 17 6 9 1017.2 1017.2 0.0
31/11:30am 22.8 20.7 11.2 48 6.5 SSW 13 20 7 11 1017.7 1017.7 0.0
31/11:00am 22.3 19.9 11.4 50 6.1 SSE 15 24 8 13 1018.2 1018.2 0.0
31/10:30am 22.3 20.0 11.7 51 5.9 SSW 15 20 8 11 1018.7 1018.7 0.0
31/10:00am 21.3 18.0 10.8 51 5.7 SSW 19 30 10 16 1018.9 1018.9 0.0
31/09:30am 21.0 18.1 11.1 53 5.4 SW 17 26 9 14 1018.9 1018.9 0.0
31/09:00am 20.1 16.5 10.5 54 5.2 SSW 20 32 11 17 1019.1 1019.1 0.0
31/08:30am 19.6 16.7 11.1 58 4.6 SSW 17 20 9 11 1019.2 1019.2 0.0
31/08:00am 18.6 16.6 12.8 69 3.2 S 15 22 8 12 1019.2 1019.2 0.0
31/07:30am 14.1 13.7 12.3 89 1.0 WSW 6 7 3 4 1019.1 1019.1 0.0
31/07:00am 12.5 10.9 11.7 95 0.4 WSW 11 11 6 6 1019.1 1019.1 0.0
31/06:30am 10.2 9.8 9.6 96 0.3 W 2 7 1 4 1018.9 1018.9 0.0
31/06:00am 10.4 9.3 9.8 96 0.3 SW 6 9 3 5 1018.8 1018.8 0.0
31/05:30am 10.0 8.6 9.4 96 0.3 SW 7 9 4 5 1018.3 1018.3 0.0
31/05:01am 9.4 9.1 8.8 96 0.3 CALM 0 0 0 0 1018.2 1018.2 0.0
31/05:00am 9.8 9.6 9.2 96 0.3 CALM 0 0 0 0 1018.2 1018.2 0.0
31/04:42am 10.1 10.0 9.5 96 0.3 CALM 0 0 0 0 1018.3 1018.3 0.0
31/04:33am 10.4 10.4 9.8 96 0.3 CALM 0 0 0 0 1018.3 1018.3 0.0
31/04:30am 10.4 10.4 9.8 96 0.3 CALM 0 0 0 0 1018.2 1018.2 0.0
31/04:00am 11.0 11.2 10.4 96 0.3 CALM 0 0 0 0 1018.0 1018.0 0.0
31/03:30am 10.4 9.6 9.6 95 0.4 WSW 4 7 2 4 1017.9 1017.9 0.0
31/03:27am 10.2 9.3 9.4 95 0.4 WSW 4 7 2 4 1017.8 1017.8 0.0
31/03:00am 10.9 10.3 10.3 96 0.3 WSW 4 7 2 4 1017.8 1017.8 0.0
31/02:30am 10.6 8.9 9.8 95 0.4 W 9 11 5 6 1017.9 1017.9 0.0
31/02:14am 11.1 9.9 10.3 95 0.4 WSW 7 9 4 5 1018.0 1018.0 0.0
31/02:00am 10.5 10.1 9.6 94 0.5 SSW 2 7 1 4 1018.0 1018.0 0.0
31/01:30am 11.3 10.3 10.4 94 0.5 SSW 6 7 3 4 1018.1 1018.1 0.0
31/01:26am 11.3 10.4 10.5 95 0.4 SSW 6 7 3 4 1018.2 1018.2 0.0
31/01:00am 12.1 12.1 11.2 94 0.5 SW 2 6 1 3 1018.4 1018.4 0.0
31/12:30am 12.1 12.4 11.0 93 0.6 CALM 0 4 0 2 1018.6 1018.6 0.0
31/12:20am 12.1 11.3 11.0 93 0.6 WSW 6 9 3 5 1018.7 1018.7 0.0
31/12:01am 11.9 12.0 10.3 90 0.8 CALM 0 0 0 0 1018.7 1018.7 0.0
31/12:00am 11.8 11.9 10.0 89 0.9 CALM 0 0 0 0 1018.7 1018.7 0.0
 
Date/Time
EST
Tmp

°C
App
Tmp
°C
Dew
Point
°C
Rel
Hum
%
Delta-T

°C
Wind Press
QNH
hPa
Press
MSL
hPa
Rain
since
9 am
mm
Dir
 
Spd
km/h
Gust
km/h
Spd
kts
Gust
kts
30/11:30pm 12.9 12.2 11.5 91 0.7 SW 6 7 3 4 1018.7 1018.7 0.0
30/11:00pm 13.6 12.1 12.0 90 0.9 WSW 11 13 6 7 1018.7 1018.7 0.0
30/10:30pm 13.9 12.4 11.9 88 1.1 SW 11 11 6 6 1018.6 1018.6 0.0
30/10:00pm 14.2 12.9 12.6 90 0.9 W 11 11 6 6 1018.5 1018.5 0.0
30/09:30pm 13.6 12.2 12.2 91 0.8 WSW 11 11 6 6 1018.4 1018.4 0.0
30/09:00pm 14.0 13.1 12.6 91 0.8 SW 9 11 5 6 1018.3 1018.3 0.0
30/08:30pm 13.9 13.3 11.6 86 1.2 SW 6 7 3 4 1018.4 1018.4 0.0
30/08:00pm 13.9 13.5 11.1 83 1.5 SSW 4 7 2 4 1018.2 1018.2 0.0
30/07:30pm 14.6 13.9 11.4 81 1.7 WSW 6 7 3 4 1018.1 1018.1 0.0
30/07:00pm 16.6 16.0 12.2 75 2.4 S 7 11 4 6 1018.0 1018.0 0.0
30/06:30pm 17.4 15.3 12.5 73 2.7 S 15 20 8 11 1017.7 1017.7 0.0
30/06:00pm 17.4 15.7 12.5 73 2.7 S 13 19 7 10 1017.4 1017.4 0.0
30/05:30pm 18.3 16.7 12.7 70 3.1 SSE 13 20 7 11 1017.1 1017.1 0.0
30/05:00pm 19.4 16.5 12.9 66 3.7 SSE 20 24 11 13 1017.0 1017.0 0.0
30/04:30pm 20.4 17.2 13.1 63 4.2 SE 22 28 12 15 1016.9 1016.9 0.0
30/04:00pm 21.1 18.1 12.5 58 4.8 SE 20 26 11 14 1016.7 1016.7 0.0
30/03:30pm 22.5 18.9 10.0 45 6.8 SSW 19 28 10 15 1016.6 1016.6 0.0
30/03:00pm 22.2 18.5 10.0 46 6.6 S 20 28 11 15 1016.5 1016.5 0.0
30/02:30pm 21.1 17.5 9.7 48 6.1 S 19 28 10 15 1016.8 1016.8 0.0

Latest Capital City Observations: Canberra | Sydney | Melbourne | Brisbane | Adelaide | Perth | Hobart | Darwin

Other Formats:

Comma delimited format used in spreadsheet applications
http://www.bom.gov.au/fwo/IDQ60901/IDQ60901.94592.axf

JavaScript Object Notation format (JSON) in row-major order
http://www.bom.gov.au/fwo/IDQ60901/IDQ60901.94592.json